createdAt,value
2018-09-21T00:00:27.213Z,77.29
2018-09-21T00:01:35.860Z,77.09
2018-09-21T00:02:44.504Z,77.19
2018-09-21T00:03:53.149Z,76.9
2018-09-21T00:05:01.803Z,76.61
2018-09-21T00:06:10.458Z,76.9
2018-09-21T00:07:19.101Z,76.81
2018-09-21T00:08:27.753Z,77
2018-09-21T00:09:36.933Z,76.71
2018-09-21T00:10:45.580Z,76.9
2018-09-21T00:11:54.226Z,77
2018-09-21T00:13:02.878Z,76.9
2018-09-21T00:14:11.795Z,77.38
2018-09-21T00:15:20.439Z,76.71
2018-09-21T00:16:29.358Z,77.09
2018-09-21T00:17:37.996Z,76.9
2018-09-21T00:18:46.918Z,76.81
2018-09-21T00:19:55.567Z,76.9
2018-09-21T00:21:04.481Z,77.38
2018-09-21T00:22:13.134Z,77.29
2018-09-21T00:23:21.771Z,77.48
2018-09-21T00:24:30.693Z,77.38
2018-09-21T00:25:39.606Z,77.09
2018-09-21T00:26:48.265Z,77
2018-09-21T00:27:57.164Z,76.81
2018-09-21T00:29:05.824Z,76.9
2018-09-21T00:30:14.463Z,77.09
2018-09-21T00:31:23.117Z,77.38
2018-09-21T00:32:31.755Z,76.9
2018-09-21T00:33:40.403Z,77.09
2018-09-21T00:34:49.051Z,77.29
2018-09-21T00:35:57.708Z,77
2018-09-21T00:37:06.353Z,77.09
2018-09-21T00:38:15.258Z,77.58
2018-09-21T00:39:23.910Z,77.38
2018-09-21T00:40:32.553Z,77.38
2018-09-21T00:41:41.213Z,77.38
2018-09-21T00:42:49.851Z,77.19
2018-09-21T00:43:58.518Z,77.48
2018-09-21T00:45:07.149Z,77.58
2018-09-21T00:46:15.808Z,77.58
2018-09-21T00:47:24.473Z,77.58
2018-09-21T00:48:33.101Z,78.06
2018-09-21T00:49:41.737Z,77.96
2018-09-21T00:50:50.390Z,77.48
2018-09-21T00:51:59.036Z,77.48
2018-09-21T00:53:07.686Z,77.86
2018-09-21T00:54:16.324Z,77.76
2018-09-21T00:55:25.242Z,77.86
2018-09-21T00:56:33.891Z,77.76
2018-09-21T00:57:42.540Z,77.67
2018-09-21T00:58:51.191Z,77.38
2018-09-21T00:59:59.828Z,77.67
2018-09-21T01:01:08.480Z,77.86
2018-09-21T01:02:17.124Z,78.06
2018-09-21T01:03:25.784Z,77.86
2018-09-21T01:04:34.692Z,77.48
2018-09-21T01:05:43.345Z,77.86
2018-09-21T01:06:51.986Z,78.44
2018-09-21T01:08:00.647Z,78.44
2018-09-21T01:09:09.280Z,78.53
2018-09-21T01:10:17.930Z,78.25
2018-09-21T01:11:26.575Z,78.34
2018-09-21T01:12:35.228Z,77.96
2018-09-21T01:13:43.867Z,77.67
2018-09-21T01:14:52.515Z,77.76
2018-09-21T01:16:01.161Z,77.96
2018-09-21T01:17:09.802Z,77.76
2018-09-21T01:18:18.453Z,78.34
2018-09-21T01:19:27.101Z,78.06
2018-09-21T01:20:36.013Z,77.76
2018-09-21T01:21:44.654Z,78.53
2018-09-21T01:22:53.306Z,78.44
2018-09-21T01:24:02.217Z,78.25
2018-09-21T01:25:10.863Z,78.63
2018-09-21T01:26:19.506Z,78.44
2018-09-21T01:27:28.163Z,78.25
2018-09-21T01:28:36.810Z,78.83
2018-09-21T01:29:45.456Z,79.3
2018-09-21T01:30:54.365Z,79.11
2018-09-21T01:32:03.014Z,79.11
2018-09-21T01:33:11.925Z,78.92
2018-09-21T01:34:20.883Z,79.11
2018-09-21T01:35:29.485Z,79.3
2018-09-21T01:36:38.126Z,79.98
2018-09-21T01:37:46.773Z,79.69
2018-09-21T01:38:55.424Z,79.79
2018-09-21T01:40:04.340Z,80.27
2018-09-21T01:41:12.981Z,79.69
2018-09-21T01:42:21.629Z,80.13
2018-09-21T01:43:30.275Z,80.32
2018-09-21T01:44:38.928Z,80.9
2018-09-21T01:45:47.567Z,80.9
2018-09-21T01:46:56.221Z,80.8
2018-09-21T01:48:04.867Z,80.51
2018-09-21T01:49:13.521Z,80.9
2018-09-21T01:50:22.179Z,80.04
2018-09-21T01:51:30.815Z,80.84
2018-09-21T01:52:39.730Z,80.9
2018-09-21T01:53:48.641Z,80.51
2018-09-21T01:54:57.550Z,80.8
2018-09-21T01:56:06.460Z,79.98
2018-09-21T01:57:15.106Z,80.71
2018-09-21T01:58:24.012Z,80.9
2018-09-21T01:59:32.661Z,80.9
2018-09-21T02:00:41.308Z,81.38
2018-09-21T02:01:49.954Z,81.09
2018-09-21T02:02:58.600Z,81.38
2018-09-21T02:04:07.250Z,81.48
2018-09-21T02:05:15.896Z,81.57
2018-09-21T02:06:24.548Z,81.76
2018-09-21T02:07:33.188Z,81.67
2018-09-21T02:08:41.838Z,82.05
2018-09-21T02:09:50.751Z,82.43
2018-09-21T02:10:59.403Z,82.34
2018-09-21T02:12:08.326Z,81.96
2018-09-21T02:13:16.962Z,82.15
2018-09-21T02:14:25.611Z,82.34
2018-09-21T02:15:34.254Z,82.34
2018-09-21T02:16:42.911Z,81.96
2018-09-21T02:17:51.551Z,82.15
2018-09-21T02:19:00.199Z,82.43
2018-09-21T02:20:08.841Z,82.34
2018-09-21T02:21:18.040Z,82.15
2018-09-21T02:22:26.675Z,82.73
2018-09-21T02:23:35.327Z,82.34
2018-09-21T02:24:44.233Z,82.34
2018-09-21T02:25:53.156Z,82.34
2018-09-21T02:27:02.061Z,82.53
2018-09-21T02:28:10.703Z,82.15
2018-09-21T02:29:19.610Z,82.24
2018-09-21T02:30:28.256Z,82.82
2018-09-21T02:31:36.917Z,82.63
2018-09-21T02:32:45.580Z,82.63
2018-09-21T02:33:54.234Z,82.53
2018-09-21T02:35:03.137Z,82.73
2018-09-21T02:36:12.074Z,82.82
2018-09-21T02:37:20.970Z,82.63
2018-09-21T02:38:29.891Z,83.4
2018-09-21T02:39:38.530Z,83.01
2018-09-21T02:40:47.459Z,83.4
2018-09-21T02:41:56.363Z,83.2
2018-09-21T02:43:05.013Z,82.92
2018-09-21T02:44:13.657Z,83.2
2018-09-21T02:45:22.310Z,83.59
2018-09-21T02:46:30.959Z,83.01
2018-09-21T02:47:39.605Z,83.11
2018-09-21T02:48:48.294Z,83.01
2018-09-21T02:49:56.890Z,83.11
2018-09-21T02:51:05.539Z,83.2
2018-09-21T02:52:14.438Z,82.73
2018-09-21T02:53:23.095Z,83.2
2018-09-21T02:54:31.993Z,82.92
2018-09-21T02:55:40.649Z,83.49
2018-09-21T02:56:49.560Z,83.3
2018-09-21T02:57:58.214Z,82.82
2018-09-21T02:59:06.850Z,82.73
2018-09-21T03:00:15.529Z,82.53
2018-09-21T03:01:24.458Z,82.63
2018-09-21T03:02:33.117Z,82.63
2018-09-21T03:03:42.295Z,82.53
2018-09-21T03:04:50.941Z,82.63
2018-09-21T03:05:59.585Z,82.24
2018-09-21T03:07:08.228Z,82.24
2018-09-21T03:08:17.159Z,82.48
2018-09-21T03:09:26.071Z,82.05
2018-09-21T03:10:34.720Z,81.99
2018-09-21T03:11:43.375Z,81.99
2018-09-21T03:12:52.284Z,82.38
2018-09-21T03:14:01.468Z,82.38
2018-09-21T03:15:10.659Z,81.9
2018-09-21T03:16:19.320Z,81.99
2018-09-21T03:17:27.961Z,81.99
2018-09-21T03:18:37.142Z,81.23
2018-09-21T03:19:45.783Z,82.38
2018-09-21T03:20:54.714Z,81.71
2018-09-21T03:22:03.362Z,81.71
2018-09-21T03:23:12.004Z,82.09
2018-09-21T03:24:20.649Z,81.9
2018-09-21T03:25:29.293Z,81.52
2018-09-21T03:26:37.955Z,82.19
2018-09-21T03:27:46.590Z,81.13
2018-09-21T03:28:55.511Z,81.81
2018-09-21T03:30:04.155Z,81.32
2018-09-21T03:31:13.083Z,81.99
2018-09-21T03:32:21.726Z,81.61
2018-09-21T03:33:30.377Z,81.81
2018-09-21T03:34:39.022Z,81.42
2018-09-21T03:35:47.677Z,81.71
2018-09-21T03:36:56.322Z,81.61
2018-09-21T03:38:05.232Z,81.99
2018-09-21T03:39:13.872Z,81.81
2018-09-21T03:40:22.787Z,81.81
2018-09-21T03:41:31.455Z,81.61
2018-09-21T03:42:40.101Z,81.42
2018-09-21T03:43:49.017Z,81.42
2018-09-21T03:44:57.928Z,81.13
2018-09-21T03:46:06.587Z,81.42
2018-09-21T03:47:15.497Z,81.42
2018-09-21T03:48:24.411Z,81.42
2018-09-21T03:49:33.315Z,80.65
2018-09-21T03:50:42.237Z,80.75
2018-09-21T03:51:50.885Z,80.79
2018-09-21T03:53:00.077Z,80.55
2018-09-21T03:54:08.727Z,80.98
2018-09-21T03:55:17.372Z,80.88
2018-09-21T03:56:26.544Z,80.3
2018-09-21T03:57:35.204Z,79.82
2018-09-21T03:58:44.124Z,80.4
2018-09-21T03:59:53.035Z,80.4
2018-09-21T04:01:01.736Z,79.73
2018-09-21T04:02:10.661Z,79.92
2018-09-21T04:03:19.588Z,80.4
2018-09-21T04:04:28.231Z,80.21
2018-09-21T04:05:36.884Z,79.63
2018-09-21T04:06:45.792Z,79.44
2018-09-21T04:07:54.728Z,80.02
2018-09-21T04:09:03.642Z,79.82
2018-09-21T04:10:12.555Z,79.73
2018-09-21T04:11:21.204Z,79.63
2018-09-21T04:12:29.855Z,79.73
2018-09-21T04:13:38.501Z,79.73
2018-09-21T04:14:47.153Z,79.63
2018-09-21T04:15:55.798Z,79.53
2018-09-21T04:17:04.711Z,79.53
2018-09-21T04:18:13.376Z,79.63
2018-09-21T04:19:22.286Z,79.63
2018-09-21T04:20:31.224Z,79.53
2018-09-21T04:21:40.127Z,79.82
2018-09-21T04:22:48.777Z,79.73
2018-09-21T04:23:57.425Z,79.92
2018-09-21T04:25:06.078Z,79.73
2018-09-21T04:26:14.991Z,78.96
2018-09-21T04:27:23.643Z,79.15
2018-09-21T04:28:32.559Z,79.25
2018-09-21T04:29:41.212Z,78.86
2018-09-21T04:30:50.118Z,78.77
2018-09-21T04:31:58.769Z,78.86
2018-09-21T04:33:07.413Z,79.19
2018-09-21T04:34:16.072Z,79.25
2018-09-21T04:35:24.716Z,79.15
2018-09-21T04:36:33.367Z,79.15
2018-09-21T04:37:42.010Z,78.77
2018-09-21T04:38:50.657Z,78.61
2018-09-21T04:39:59.317Z,78.71
2018-09-21T04:41:08.224Z,78.61
2018-09-21T04:42:16.871Z,78.71
2018-09-21T04:43:25.514Z,78.71
2018-09-21T04:44:34.430Z,78.52
2018-09-21T04:45:43.379Z,77.94
2018-09-21T04:46:52.007Z,77.75
2018-09-21T04:48:00.655Z,77.56
2018-09-21T04:49:09.302Z,77.84
2018-09-21T04:50:17.951Z,77.94
2018-09-21T04:51:26.600Z,77.36
2018-09-21T04:52:35.515Z,77.17
2018-09-21T04:53:44.162Z,76.78
2018-09-21T04:54:52.810Z,77.26
2018-09-21T04:56:01.462Z,77.17
2018-09-21T04:57:10.106Z,77.26
2018-09-21T04:58:18.753Z,77.26
2018-09-21T04:59:27.396Z,76.98
2018-09-21T05:00:36.043Z,77.11
2018-09-21T05:01:44.962Z,76.92
2018-09-21T05:02:53.612Z,77.01
2018-09-21T05:04:02.252Z,76.92
2018-09-21T05:05:10.895Z,77.01
2018-09-21T05:06:19.816Z,76.53
2018-09-21T05:07:28.454Z,76.73
2018-09-21T05:08:37.103Z,76.34
2018-09-21T05:09:45.753Z,76.34
2018-09-21T05:10:54.408Z,75.96
2018-09-21T05:12:03.053Z,75.86
2018-09-21T05:13:11.700Z,76.25
2018-09-21T05:14:20.343Z,76.44
2018-09-21T05:15:29.261Z,76.25
2018-09-21T05:16:37.913Z,76.15
2018-09-21T05:17:46.561Z,75.76
2018-09-21T05:18:55.232Z,75.76
2018-09-21T05:20:03.883Z,75.23
2018-09-21T05:21:12.791Z,75.23
2018-09-21T05:22:21.440Z,75.61
2018-09-21T05:23:30.086Z,75.61
2018-09-21T05:24:38.726Z,75.32
2018-09-21T05:25:47.384Z,75.03
2018-09-21T05:26:56.292Z,75.32
2018-09-21T05:28:04.939Z,75.13
2018-09-21T05:29:13.590Z,74.84
2018-09-21T05:30:22.237Z,75.13
2018-09-21T05:31:30.884Z,75.23
2018-09-21T05:32:39.536Z,75.03
2018-09-21T05:33:48.184Z,75.23
2018-09-21T05:34:56.839Z,75.13
2018-09-21T05:36:05.480Z,74.93
2018-09-21T05:37:14.127Z,74.55
2018-09-21T05:38:22.778Z,74.74
2018-09-21T05:39:31.422Z,74.74
2018-09-21T05:40:40.069Z,74.74
2018-09-21T05:41:48.719Z,74.93
2018-09-21T05:42:57.370Z,74.55
2018-09-21T05:44:06.279Z,73.97
2018-09-21T05:45:14.930Z,73.82
2018-09-21T05:46:23.591Z,73.82
2018-09-21T05:47:32.229Z,73.82
2018-09-21T05:48:40.872Z,73.53
2018-09-21T05:49:49.519Z,73.82
2018-09-21T05:50:58.164Z,73.53
2018-09-21T05:52:06.811Z,72.95
2018-09-21T05:53:15.734Z,73.14
2018-09-21T05:54:24.389Z,73.14
2018-09-21T05:55:33.032Z,72.95
2018-09-21T05:56:41.726Z,72.66
2018-09-21T05:57:50.384Z,72.41
2018-09-21T05:58:59.027Z,72.31
2018-09-21T06:00:07.676Z,72.47
2018-09-21T06:01:16.317Z,72.5
2018-09-21T06:02:25.315Z,72.69
2018-09-21T06:03:33.914Z,72.69
2018-09-21T06:04:42.567Z,72.6
2018-09-21T06:05:51.204Z,72.69
2018-09-21T06:06:59.858Z,72.31
2018-09-21T06:08:08.615Z,72.69
2018-09-21T06:09:17.155Z,72.21
2018-09-21T06:10:25.808Z,72.69
2018-09-21T06:11:34.711Z,72.69
2018-09-21T06:12:43.366Z,72.31
2018-09-21T06:13:52.036Z,72.31
2018-09-21T06:15:00.936Z,72.69
2018-09-21T06:16:09.573Z,72.69
2018-09-21T06:17:18.225Z,72.41
2018-09-21T06:18:26.869Z,72.21
2018-09-21T06:19:35.525Z,72.31
2018-09-21T06:20:44.451Z,72.5
2018-09-21T06:21:53.099Z,72.41
2018-09-21T06:23:01.831Z,72.12
2018-09-21T06:24:10.403Z,72.12
2018-09-21T06:25:19.343Z,72.6
2018-09-21T06:26:27.985Z,72.69
2018-09-21T06:27:36.637Z,72.41
2018-09-21T06:28:45.547Z,72.21
2018-09-21T06:29:54.203Z,72.5
2018-09-21T06:31:03.107Z,72.5
2018-09-21T06:32:12.022Z,72.25
2018-09-21T06:33:20.932Z,72.25
2018-09-21T06:34:29.592Z,72.44
2018-09-21T06:35:38.242Z,72.25
2018-09-21T06:36:47.160Z,72.54
2018-09-21T06:37:55.800Z,72.54
2018-09-21T06:39:04.721Z,72.54
2018-09-21T06:40:13.376Z,72.44
2018-09-21T06:41:22.026Z,72.15
2018-09-21T06:42:30.664Z,72.63
2018-09-21T06:43:39.926Z,72.73
2018-09-21T06:44:48.560Z,72.34
2018-09-21T06:45:57.212Z,72.73
2018-09-21T06:47:05.860Z,72.73
2018-09-21T06:48:14.775Z,72.06
2018-09-21T06:49:23.427Z,72.44
2018-09-21T06:50:32.074Z,72.63
2018-09-21T06:51:40.987Z,72.25
2018-09-21T06:52:50.153Z,72.06
2018-09-21T06:53:58.805Z,71.86
2018-09-21T06:55:07.460Z,72.15
2018-09-21T06:56:16.110Z,71.58
2018-09-21T06:57:24.746Z,70.8
2018-09-21T06:58:33.397Z,71.19
2018-09-21T06:59:42.304Z,70.94
2018-09-21T07:00:51.232Z,71.22
2018-09-21T07:01:59.966Z,71.12
2018-09-21T07:03:09.142Z,70.94
2018-09-21T07:04:17.797Z,70.84
2018-09-21T07:05:26.448Z,71.22
2018-09-21T07:06:35.088Z,71.12
2018-09-21T07:07:43.739Z,71.12
2018-09-21T07:08:52.381Z,71.12
2018-09-21T07:10:01.093Z,71.32
2018-09-21T07:11:09.689Z,71.19
2018-09-21T07:12:18.609Z,71.09
2018-09-21T07:13:27.253Z,70.61
2018-09-21T07:14:35.911Z,70.64
2018-09-21T07:15:44.554Z,70.54
2018-09-21T07:16:53.486Z,70.13
2018-09-21T07:18:02.195Z,70.32
2018-09-21T07:19:10.851Z,70.03
2018-09-21T07:20:19.500Z,70.51
2018-09-21T07:21:28.408Z,70.42
2018-09-21T07:22:37.054Z,69.64
2018-09-21T07:23:45.701Z,69.93
2018-09-21T07:24:54.359Z,70.13
2018-09-21T07:26:02.998Z,69.45
2018-09-21T07:27:11.913Z,69.93
2018-09-21T07:28:20.553Z,69.64
2018-09-21T07:29:29.209Z,70.13
2018-09-21T07:30:37.853Z,69.55
2018-09-21T07:31:46.505Z,69.64
2018-09-21T07:32:55.145Z,69.45
2018-09-21T07:34:03.802Z,69.45
2018-09-21T07:35:12.713Z,69.45
2018-09-21T07:36:21.363Z,69.64
2018-09-21T07:37:30.062Z,69.45
2018-09-21T07:38:38.661Z,69.16
2018-09-21T07:39:47.315Z,69.64
2018-09-21T07:40:55.969Z,69.45
2018-09-21T07:42:04.625Z,69.45
2018-09-21T07:43:13.523Z,69.74
2018-09-21T07:44:22.195Z,69.45
2018-09-21T07:45:30.824Z,69.93
2018-09-21T07:46:39.485Z,68.97
2018-09-21T07:47:48.124Z,68.71
2018-09-21T07:48:56.880Z,68.13
2018-09-21T07:50:05.694Z,68.23
2018-09-21T07:51:14.897Z,68.33
2018-09-21T07:52:24.060Z,68.81
2018-09-21T07:53:32.710Z,68.33
2018-09-21T07:54:41.359Z,68.71
2018-09-21T07:55:50.016Z,68.71
2018-09-21T07:56:58.662Z,68.43
2018-09-21T07:58:07.306Z,68.23
2018-09-21T07:59:15.949Z,68.33
2018-09-21T08:00:24.596Z,67.65
2018-09-21T08:01:33.252Z,66.88
2018-09-21T08:02:42.166Z,66.75
2018-09-21T08:03:50.815Z,67.75
2018-09-21T08:04:59.779Z,67.23
2018-09-21T08:06:08.717Z,67.85
2018-09-21T08:07:17.660Z,67.71
2018-09-21T08:08:26.651Z,67.14
2018-09-21T08:09:35.295Z,67.81
2018-09-21T08:10:43.953Z,67.81
2018-09-21T08:11:52.614Z,67.14
2018-09-21T08:13:01.362Z,67.62
2018-09-21T08:14:10.010Z,66.94
2018-09-21T08:15:18.661Z,66.69
2018-09-21T08:16:27.310Z,66.85
2018-09-21T08:17:35.961Z,66.88
2018-09-21T08:18:44.808Z,66.94
2018-09-21T08:19:53.451Z,67.46
2018-09-21T08:21:02.100Z,67.65
2018-09-21T08:22:10.835Z,67.75
2018-09-21T08:23:19.946Z,67.71
2018-09-21T08:24:28.594Z,67.55
2018-09-21T08:25:37.247Z,67.46
2018-09-21T08:26:46.177Z,67.65
2018-09-21T08:27:54.932Z,66.97
2018-09-21T08:29:03.577Z,66.88
2018-09-21T08:30:12.229Z,66.88
2018-09-21T08:31:20.913Z,67.17
2018-09-21T08:32:29.906Z,66.4
2018-09-21T08:33:38.552Z,67.17
2018-09-21T08:34:47.202Z,66.88
2018-09-21T08:35:55.850Z,66.88
2018-09-21T08:37:04.508Z,67.17
2018-09-21T08:38:13.987Z,67.17
2018-09-21T08:39:22.907Z,66.78
2018-09-21T08:40:31.554Z,66.88
2018-09-21T08:41:40.472Z,66.97
2018-09-21T08:42:49.241Z,66.69
2018-09-21T08:43:57.833Z,66.88
2018-09-21T08:45:06.484Z,67.17
2018-09-21T08:46:15.133Z,67.65
2018-09-21T08:47:24.070Z,67.75
2018-09-21T08:48:32.714Z,68.23
2018-09-21T08:49:41.367Z,68.33
2018-09-21T08:50:50.014Z,69
2018-09-21T08:51:58.665Z,69.64
2018-09-21T08:53:07.318Z,72.63
2018-09-21T08:54:15.972Z,74.76
2018-09-21T08:55:24.620Z,77.26
2018-09-21T08:56:33.267Z,77.71
2018-09-21T08:57:41.918Z,79.89
2018-09-21T08:58:50.569Z,80.46
2018-09-21T08:59:59.221Z,81.87
2018-09-21T09:01:07.867Z,82.45
2018-09-21T09:02:16.520Z,83.61
2018-09-21T09:03:25.239Z,84.14
2018-09-21T09:04:33.827Z,86.16
2018-09-21T09:05:42.465Z,87.18
2018-09-21T09:06:51.123Z,89.78
2018-09-21T09:07:59.773Z,92.23
2018-09-21T09:09:08.428Z,93.48
2018-09-21T09:10:17.074Z,94.4
2018-09-21T09:11:25.720Z,95.26
2018-09-21T09:12:34.369Z,96.03
2018-09-21T09:13:43.282Z,98.48
2018-09-21T09:14:51.939Z,98
2018-09-21T09:16:00.581Z,99.99
2018-09-21T09:17:09.503Z,99.99
2018-09-21T09:18:18.141Z,99.99
2018-09-21T09:19:26.798Z,99.99
2018-09-21T09:20:35.445Z,99.99
2018-09-21T09:21:44.093Z,99.99
2018-09-21T09:22:52.729Z,99.99
2018-09-21T09:24:01.647Z,99.99
2018-09-21T09:25:10.291Z,99.99
2018-09-21T09:26:18.937Z,99.99
2018-09-21T09:27:27.574Z,99.99
2018-09-21T09:28:36.219Z,99.99
2018-09-21T09:29:45.138Z,99.99
2018-09-21T09:30:53.784Z,99.99
2018-09-21T09:32:02.430Z,99.99
2018-09-21T09:33:11.072Z,99.99
2018-09-21T09:34:19.721Z,99.99
2018-09-21T09:35:28.362Z,99.99
2018-09-21T09:36:37.065Z,99.99
2018-09-21T09:37:46.215Z,99.99
2018-09-21T09:38:54.863Z,99.99
2018-09-21T09:40:03.502Z,99.99
2018-09-21T09:41:12.420Z,99.99
2018-09-21T09:42:21.058Z,99.99
2018-09-21T09:43:29.703Z,99.99
2018-09-21T09:44:38.360Z,99.99
2018-09-21T09:45:47.013Z,99.99
2018-09-21T09:46:55.924Z,99.99
2018-09-21T09:48:04.564Z,99.99
2018-09-21T09:49:13.574Z,99.99
2018-09-21T09:50:22.117Z,99.99
2018-09-21T09:51:31.041Z,99.99
2018-09-21T09:52:39.681Z,99.99
2018-09-21T09:53:48.327Z,99.99
2018-09-21T09:54:57.417Z,99.99
2018-09-21T09:56:05.973Z,99.99
2018-09-21T09:57:14.621Z,99.99
2018-09-21T09:58:23.276Z,99.99
2018-09-21T09:59:31.912Z,99.99
2018-09-21T10:00:40.571Z,99.99
2018-09-21T10:01:49.216Z,99.99
2018-09-21T10:02:58.139Z,99.99
2018-09-21T10:04:06.779Z,99.99
2018-09-21T10:05:15.691Z,99.99
2018-09-21T10:06:24.603Z,99.99
2018-09-21T10:07:33.251Z,99.99
2018-09-21T10:08:41.897Z,99.99
2018-09-21T10:09:50.585Z,99.99
2018-09-21T10:10:59.466Z,99.99
2018-09-21T10:12:08.117Z,99.99
2018-09-21T10:13:17.635Z,99.99
2018-09-21T10:14:27.127Z,99.99
2018-09-21T10:15:36.446Z,99.99
2018-09-21T10:16:45.388Z,99.99
2018-09-21T10:17:54.905Z,99.99
2018-09-21T10:19:04.084Z,99.99
2018-09-21T10:20:12.760Z,99.99
2018-09-21T10:21:21.399Z,99.99
2018-09-21T10:22:30.049Z,99.99
2018-09-21T10:23:38.692Z,99.99
2018-09-21T10:24:47.338Z,99.99
2018-09-21T10:25:55.978Z,99.99
2018-09-21T10:27:04.732Z,99.99
2018-09-21T10:28:13.785Z,99.99
2018-09-21T10:29:22.372Z,99.99
2018-09-21T10:30:30.992Z,99.99
2018-09-21T10:31:39.902Z,99.99
2018-09-21T10:32:48.552Z,99.99
2018-09-21T10:33:57.198Z,99.99
2018-09-21T10:35:05.839Z,99.99
2018-09-21T10:36:14.481Z,99.99
2018-09-21T10:37:23.131Z,99.99
2018-09-21T10:38:31.774Z,99.99
2018-09-21T10:39:40.422Z,99.99
2018-09-21T10:40:49.064Z,99.99
2018-09-21T10:41:57.711Z,99.99
2018-09-21T10:43:06.462Z,99.99
2018-09-21T10:44:15.834Z,99.99
2018-09-21T10:45:24.740Z,99.99
2018-09-21T10:46:33.381Z,99.99
2018-09-21T10:47:42.294Z,99.99
2018-09-21T10:48:50.939Z,99.99
2018-09-21T10:49:59.591Z,99.99
2018-09-21T10:51:08.233Z,99.99
2018-09-21T10:52:16.876Z,99.99
2018-09-21T10:53:25.523Z,99.99
2018-09-21T10:54:34.433Z,99.99
2018-09-21T10:55:43.075Z,99.99
2018-09-21T10:56:52.140Z,99.99
2018-09-21T10:58:00.815Z,99.99
2018-09-21T10:59:09.456Z,99.99
2018-09-21T11:00:18.102Z,99.99
2018-09-21T11:01:27.334Z,99.99
2018-09-21T11:02:35.995Z,99.99
2018-09-21T11:03:44.810Z,99.99
2018-09-21T11:04:53.452Z,99.99
2018-09-21T11:06:02.163Z,99.99
2018-09-21T11:07:11.049Z,99.99
2018-09-21T11:08:20.306Z,99.99
2018-09-21T11:09:28.970Z,99.99
2018-09-21T11:10:37.912Z,99.99
2018-09-21T11:11:46.549Z,99.99
2018-09-21T11:12:55.555Z,99.99
2018-09-21T11:14:04.239Z,99.99
2018-09-21T11:15:12.904Z,99.99
2018-09-21T11:16:21.551Z,99.99
2018-09-21T11:17:30.467Z,99.99
2018-09-21T11:18:39.381Z,99.99
2018-09-21T11:19:48.300Z,99.99
2018-09-21T11:20:57.205Z,99.99
2018-09-21T11:22:05.851Z,99.99
2018-09-21T11:23:14.500Z,99.99
2018-09-21T11:24:23.145Z,99.99
2018-09-21T11:25:31.791Z,99.99
2018-09-21T11:26:40.435Z,99.99
2018-09-21T11:27:49.088Z,99.99
2018-09-21T11:28:57.732Z,99.99
2018-09-21T11:30:06.377Z,99.63
2018-09-21T11:31:15.019Z,99.99
2018-09-21T11:32:23.669Z,99.96
2018-09-21T11:33:32.316Z,99.99
2018-09-21T11:34:40.961Z,99.99
2018-09-21T11:35:49.606Z,99.77
2018-09-21T11:36:58.255Z,99.24
2018-09-21T11:38:07.173Z,99.15
2018-09-21T11:39:15.822Z,99.87
2018-09-21T11:40:24.468Z,99.63
2018-09-21T11:41:33.158Z,99.99
2018-09-21T11:42:41.805Z,99.99
2018-09-21T11:43:50.509Z,99.58
2018-09-21T11:44:59.161Z,98.62
2018-09-21T11:46:07.867Z,98.24
2018-09-21T11:47:16.966Z,98.38
2018-09-21T11:48:25.416Z,98.28
2018-09-21T11:49:34.067Z,98.96
2018-09-21T11:50:42.710Z,99.48
2018-09-21T11:51:51.364Z,98.81
2018-09-21T11:53:00.008Z,98.72
2018-09-21T11:54:08.661Z,98.14
2018-09-21T11:55:17.310Z,97.85
2018-09-21T11:56:25.953Z,98.05
2018-09-21T11:57:34.599Z,98.47
2018-09-21T11:58:43.503Z,99.05
2018-09-21T11:59:52.422Z,98.57
2018-09-21T12:01:01.064Z,98.28
2018-09-21T12:02:09.715Z,98.67
2018-09-21T12:03:18.350Z,98.47
2018-09-21T12:04:27.272Z,98.57
2018-09-21T12:05:35.914Z,98.67
2018-09-21T12:06:44.566Z,98
2018-09-21T12:07:53.200Z,98.1
2018-09-21T12:09:02.116Z,98.43
2018-09-21T12:10:10.759Z,97.8
2018-09-21T12:11:19.407Z,97.28
2018-09-21T12:12:28.046Z,97.38
2018-09-21T12:13:36.695Z,97.76
2018-09-21T12:14:45.343Z,97.85
2018-09-21T12:15:54.051Z,97.47
2018-09-21T12:17:02.692Z,96.99
2018-09-21T12:18:11.691Z,96.61
2018-09-21T12:19:20.348Z,95.94
2018-09-21T12:20:28.984Z,97.28
2018-09-21T12:21:37.645Z,97.09
2018-09-21T12:22:46.360Z,96.99
2018-09-21T12:23:54.936Z,96.89
2018-09-21T12:25:03.837Z,96.99
2018-09-21T12:26:12.492Z,97.28
2018-09-21T12:27:21.132Z,96.32
2018-09-21T12:28:29.782Z,95.46
2018-09-21T12:29:38.449Z,95.46
2018-09-21T12:30:47.085Z,94.69
2018-09-21T12:31:55.723Z,96.32
2018-09-21T12:33:04.363Z,97.81
2018-09-21T12:34:13.026Z,95.21
2018-09-21T12:35:21.917Z,93.59
2018-09-21T12:36:30.668Z,94.74
2018-09-21T12:37:39.216Z,93.78
2018-09-21T12:38:47.868Z,94.17
2018-09-21T12:39:56.508Z,92.34
2018-09-21T12:41:05.167Z,93.3
2018-09-21T12:42:13.809Z,93.21
2018-09-21T12:43:22.778Z,92.72
2018-09-21T12:44:31.456Z,91.57
2018-09-21T12:45:40.432Z,87.93
2018-09-21T12:46:49.082Z,89.08
2018-09-21T12:47:57.732Z,90.23
2018-09-21T12:49:06.370Z,88.79
2018-09-21T12:50:15.028Z,86.01
2018-09-21T12:51:23.668Z,85.72
2018-09-21T12:52:32.580Z,82.46
2018-09-21T12:53:41.230Z,82.46
2018-09-21T12:54:49.866Z,80.89
2018-09-21T12:55:58.513Z,79.26
2018-09-21T12:57:07.162Z,82.42
2018-09-21T12:58:15.835Z,80.89
2018-09-21T12:59:24.457Z,79.45
2018-09-21T13:00:33.100Z,80.12
2018-09-21T13:01:41.752Z,79.07
2018-09-21T13:02:50.401Z,78.49
2018-09-21T13:03:59.310Z,80.79
2018-09-21T13:05:07.955Z,78.69
2018-09-21T13:06:17.247Z,79.07
2018-09-21T13:07:25.831Z,78.69
2018-09-21T13:08:34.490Z,78.55
2018-09-21T13:09:43.671Z,81.95
2018-09-21T13:10:52.318Z,82.81
2018-09-21T13:12:00.966Z,83.38
2018-09-21T13:13:09.605Z,78.97
2018-09-21T13:14:18.287Z,77.53
2018-09-21T13:15:26.896Z,79.89
2018-09-21T13:16:35.546Z,80.6
2018-09-21T13:17:44.454Z,79.45
2018-09-21T13:18:53.098Z,80.79
2018-09-21T13:20:01.747Z,80.89
2018-09-21T13:21:10.398Z,78.97
2018-09-21T13:22:19.316Z,80.51
2018-09-21T13:23:27.965Z,77.44
2018-09-21T13:24:36.869Z,78.88
2018-09-21T13:25:45.612Z,79.49
2018-09-21T13:26:54.262Z,79.11
2018-09-21T13:28:03.204Z,80.55
2018-09-21T13:29:11.847Z,79.97
2018-09-21T13:30:20.489Z,80.26
2018-09-21T13:31:29.147Z,82.08
2018-09-21T13:32:38.054Z,79.59
2018-09-21T13:33:46.702Z,77.29
2018-09-21T13:34:55.342Z,80.35
2018-09-21T13:36:03.996Z,79.83
2018-09-21T13:37:12.901Z,81.51
2018-09-21T13:38:21.546Z,77.48
2018-09-21T13:39:30.188Z,76.86
2018-09-21T13:40:38.839Z,77.82
2018-09-21T13:41:47.483Z,76.29
2018-09-21T13:42:56.133Z,76
2018-09-21T13:44:04.773Z,77.44
2018-09-21T13:45:13.421Z,78.02
2018-09-21T13:46:22.067Z,76.86
2018-09-21T13:47:30.713Z,75.43
2018-09-21T13:48:39.363Z,75.81
2018-09-21T13:49:48.004Z,78.4
2018-09-21T13:50:56.654Z,76.19
2018-09-21T13:52:05.300Z,77.06
2018-09-21T13:53:13.949Z,75.62
2018-09-21T13:54:22.865Z,76.48
2018-09-21T13:55:31.513Z,77.53
2018-09-21T13:56:40.159Z,78.11
2018-09-21T13:57:49.094Z,77.25
2018-09-21T13:58:57.732Z,75.81
2018-09-21T14:00:06.376Z,76.57
2018-09-21T14:01:15.283Z,77.86
2018-09-21T14:02:23.939Z,80.93
2018-09-21T14:03:32.582Z,79.11
2018-09-21T14:04:41.228Z,76.52
2018-09-21T14:05:49.872Z,77.19
2018-09-21T14:06:58.516Z,76.62
2018-09-21T14:08:07.437Z,75.08
2018-09-21T14:09:16.081Z,76.71
2018-09-21T14:10:24.730Z,76.14
2018-09-21T14:11:33.367Z,77.48
2018-09-21T14:12:42.025Z,79.11
2018-09-21T14:13:50.662Z,79.78
2018-09-21T14:14:59.583Z,76.42
2018-09-21T14:16:08.218Z,78.25
2018-09-21T14:17:16.871Z,80.45
2018-09-21T14:18:25.514Z,77.29
2018-09-21T14:19:34.163Z,76.81
2018-09-21T14:20:42.802Z,77
2018-09-21T14:21:51.450Z,74.98
2018-09-21T14:23:00.100Z,76.42
2018-09-21T14:24:08.749Z,76.23
2018-09-21T14:25:17.398Z,74.31
2018-09-21T14:26:26.035Z,73.93
2018-09-21T14:27:34.958Z,74.69
2018-09-21T14:28:43.596Z,75.46
2018-09-21T14:29:52.532Z,74.44
2018-09-21T14:31:01.168Z,74.26
2018-09-21T14:32:09.819Z,73.3
2018-09-21T14:33:18.455Z,73.2
2018-09-21T14:34:27.378Z,73
2018-09-21T14:35:36.538Z,72.53
2018-09-21T14:36:45.188Z,73.3
2018-09-21T14:37:53.828Z,73.77
2018-09-21T14:39:02.484Z,72.43
2018-09-21T14:40:11.132Z,72.91
2018-09-21T14:41:19.771Z,72.05
2018-09-21T14:42:28.413Z,71.37
2018-09-21T14:43:37.055Z,73.2
2018-09-21T14:44:45.973Z,71.28
2018-09-21T14:45:54.614Z,71.66
2018-09-21T14:47:03.265Z,72.24
2018-09-21T14:48:11.908Z,72.91